Etusivu
METAR-TAF:

METAR-TAF

Lentoasemat :

Vesisaari, Norja

Leveyspiiri: 70-04N, Pituuspiiri: 029-51E, korkeus merenpinnasta: 3 m

Tämänhetkinen sää

Tämä raportti tehtiin 39 minuuttia sitten, kello 09.20 UTC
Tuuli 6 kn pohjoisesta/koillisesta
Lämpötila -7°C
Kosteus 93%
Ilmanpaine 1026 hPa
Näkyvyys: 8000 m
Hajonneita pilviä 600 ft:n korkeudessa
heikkoa lumisadetta

METAR: ENVD 170920Z 03006KT 8000 -SN BKN006 M07/M08 Q1026

Aika: 10:59 (09:59 UTC)

Sääennuste

Tämä raportti tehtiin 1 tunti ja 59 minuuttia sitten, kello 08.00 UTC
Ennuste voimassa 17. päivästä klo 10 UTC - 17. päivään klo 18 UTC
Tuuli 8 kn kaakosta
Näkyvyys 10 km tai enemmän
Hajonneita pilviä 600 ft:n korkeudessa
heikkoa lumisadetta
Ajoittain
17. päivästä klo 10 UTC - 17. päivään klo 18 UTC
Näkyvyys: 0500 m
100 ft:n korkeudessa
jäätävää sumua

TAF: ENVD 170800Z 1710/1718 13008KT 9999 -SN BKN006 TEMPO 1710/1718 0500 FZFG VV001

Säähavainnot ja -ennusteet yli 4000 lentoasemalta (METAR- ja TAF-raportit).

Käytössä olevat sääasemat on merkitty karttaan keltaisilla ja punaisilla pisteillä.

Aseta hiiri pisteen päälle nähdäksesi sääaseman nimen.

Klikkaa sitten nähdäksesi säähavainnot ja -ennusteet.

Kartan vaihtaminen: klikkaa mustalla rastilla varustettuja vihreitä pisteitä, niin voit zoomata sisään; viivalla varustettua vihreää pistettä, niin voit zoomata ulos tai vihreitä nuolia, niin pääset viereisille kartoille.


METAR-TAF: